sensor_id;sensor_type;location;lat;lon;timestamp;pressure;altitude;pressure_sealevel;temperature;humidity
41800;BME280;27468;47.460;19.034;2022-10-14T00:02:01;100795.56;;;8.68;95.22
41800;BME280;27468;47.460;19.034;2022-10-14T00:04:27;100837.50;;;8.92;95.22
41800;BME280;27468;47.460;19.034;2022-10-14T00:06:54;100787.75;;;8.57;95.59
41800;BME280;27468;47.460;19.034;2022-10-14T00:09:19;100841.88;;;8.92;95.03
41800;BME280;27468;47.460;19.034;2022-10-14T00:11:45;100848.91;;;8.90;95.14
41800;BME280;27468;47.460;19.034;2022-10-14T00:14:13;100841.00;;;8.90;95.16
41800;BME280;27468;47.460;19.034;2022-10-14T00:16:41;100827.91;;;8.81;94.72
41800;BME280;27468;47.460;19.034;2022-10-14T00:19:07;100789.50;;;8.55;94.91
41800;BME280;27468;47.460;19.034;2022-10-14T00:21:33;100839.28;;;8.83;95.12
41800;BME280;27468;47.460;19.034;2022-10-14T00:23:59;100796.50;;;8.59;95.05
41800;BME280;27468;47.460;19.034;2022-10-14T00:26:30;100793.91;;;8.52;95.35
41800;BME280;27468;47.460;19.034;2022-10-14T00:28:56;100809.63;;;8.63;95.29
41800;BME280;27468;47.460;19.034;2022-10-14T00:31:23;100824.47;;;8.67;95.52
41800;BME280;27468;47.460;19.034;2022-10-14T00:33:49;100831.44;;;8.75;95.24
41800;BME280;27468;47.460;19.034;2022-10-14T00:36:17;100799.19;;;8.49;95.68
41800;BME280;27468;47.460;19.034;2022-10-14T00:38:43;100818.38;;;8.63;95.80
41800;BME280;27468;47.460;19.034;2022-10-14T00:41:13;100820.09;;;8.69;95.76
41800;BME280;27468;47.460;19.034;2022-10-14T00:43:59;100814.00;;;8.62;96.00
41800;BME280;27468;47.460;19.034;2022-10-14T00:46:31;100761.59;;;8.27;95.85
41800;BME280;27468;47.460;19.034;2022-10-14T00:48:58;100832.34;;;8.67;95.94
41800;BME280;27468;47.460;19.034;2022-10-14T00:51:26;100806.16;;;8.56;95.98
41800;BME280;27468;47.460;19.034;2022-10-14T00:53:52;100757.19;;;8.29;96.14
41800;BME280;27468;47.460;19.034;2022-10-14T00:56:22;100771.22;;;8.36;96.33
41800;BME280;27468;47.460;19.034;2022-10-14T00:58:49;100772.97;;;8.37;96.45
41800;BME280;27468;47.460;19.034;2022-10-14T01:01:15;100791.28;;;8.49;96.45
41800;BME280;27468;47.460;19.034;2022-10-14T01:03:40;100778.16;;;8.46;96.24
41800;BME280;27468;47.460;19.034;2022-10-14T01:06:21;100707.44;;;8.00;96.89
41800;BME280;27468;47.460;19.034;2022-10-14T01:09:25;100811.38;;;8.64;96.85
41800;BME280;27468;47.460;19.034;2022-10-14T01:12:19;100819.28;;;8.60;96.83
41800;BME280;27468;47.460;19.034;2022-10-14T01:25:05;100819.28;;;8.60;96.47
41800;BME280;27468;47.460;19.034;2022-10-14T01:27:42;100814.91;;;8.58;96.25
41800;BME280;27468;47.460;19.034;2022-10-14T01:30:15;100777.34;;;8.33;96.36
41800;BME280;27468;47.460;19.034;2022-10-14T01:38:17;100809.69;;;8.49;96.29
41800;BME280;27468;47.460;19.034;2022-10-14T01:43:47;100793.06;;;8.44;96.09
41800;BME280;27468;47.460;19.034;2022-10-14T01:46:15;100752.88;;;8.17;96.05
41800;BME280;27468;47.460;19.034;2022-10-14T01:48:44;100798.31;;;8.47;95.81
41800;BME280;27468;47.460;19.034;2022-10-14T01:51:15;100795.72;;;8.41;96.12
41800;BME280;27468;47.460;19.034;2022-10-14T01:53:48;100768.59;;;8.23;96.09
41800;BME280;27468;47.460;19.034;2022-10-14T01:56:16;100798.31;;;8.44;96.15
41800;BME280;27468;47.460;19.034;2022-10-14T01:58:42;100757.22;;;8.20;95.93
41800;BME280;27468;47.460;19.034;2022-10-14T02:01:08;100724.94;;;8.06;95.83
41800;BME280;27468;47.460;19.034;2022-10-14T02:03:38;100762.47;;;8.23;95.77
41800;BME280;27468;47.460;19.034;2022-10-14T02:06:06;100757.25;;;8.14;95.78
41800;BME280;27468;47.460;19.034;2022-10-14T02:09:00;100795.72;;;8.39;95.79
41800;BME280;27468;47.460;19.034;2022-10-14T02:11:33;100791.34;;;8.32;95.96
41800;BME280;27468;47.460;19.034;2022-10-14T02:14:10;100800.09;;;8.42;95.88
41800;BME280;27468;47.460;19.034;2022-10-14T02:19:42;100792.19;;;8.43;96.05
41800;BME280;27468;47.460;19.034;2022-10-14T02:25:06;100748.47;;;8.18;96.14
41800;BME280;27468;47.460;19.034;2022-10-14T02:27:34;100793.97;;;8.40;96.28
41800;BME280;27468;47.460;19.034;2022-10-14T02:30:00;100727.56;;;8.04;96.28
41800;BME280;27468;47.460;19.034;2022-10-14T02:32:29;100792.22;;;8.42;96.42
41800;BME280;27468;47.460;19.034;2022-10-14T02:34:57;100740.59;;;8.16;96.51
41800;BME280;27468;47.460;19.034;2022-10-14T02:37:24;100797.44;;;8.43;96.60
41800;BME280;27468;47.460;19.034;2022-10-14T02:40:02;100774.72;;;8.36;96.53
41800;BME280;27468;47.460;19.034;2022-10-14T02:42:29;100759.84;;;8.24;96.24
41800;BME280;27468;47.460;19.034;2022-10-14T02:44:57;100792.19;;;8.46;96.21
41800;BME280;27468;47.460;19.034;2022-10-14T02:47:23;100798.31;;;8.44;96.15
41800;BME280;27468;47.460;19.034;2022-10-14T02:49:49;100727.50;;;8.09;95.97
41800;BME280;27468;47.460;19.034;2022-10-14T02:52:14;100781.69;;;8.40;95.99
41800;BME280;27468;47.460;19.034;2022-10-14T02:54:39;100790.47;;;8.39;96.23
41800;BME280;27468;47.460;19.034;2022-10-14T02:57:05;100775.56;;;8.31;96.16
41800;BME280;27468;47.460;19.034;2022-10-14T02:59:30;100739.72;;;8.19;95.88
41800;BME280;27468;47.460;19.034;2022-10-14T03:01:56;100789.56;;;8.48;95.92
41800;BME280;27468;47.460;19.034;2022-10-14T03:04:21;100771.19;;;8.39;95.74
41800;BME280;27468;47.460;19.034;2022-10-14T03:06:46;100784.28;;;8.51;95.65
41800;BME280;27468;47.460;19.034;2022-10-14T03:09:12;100782.56;;;8.47;95.81
41800;BME280;27468;47.460;19.034;2022-10-14T03:11:37;100734.50;;;8.14;95.86
41800;BME280;27468;47.460;19.034;2022-10-14T03:14:02;100785.19;;;8.47;95.91
41800;BME280;27468;47.460;19.034;2022-10-14T03:16:28;100768.59;;;8.36;95.73
41800;BME280;27468;47.460;19.034;2022-10-14T03:18:53;100765.94;;;8.31;95.74
41800;BME280;27468;47.460;19.034;2022-10-14T03:21:19;100759.81;;;8.27;95.90
41800;BME280;27468;47.460;19.034;2022-10-14T03:23:44;100765.06;;;8.31;95.75
41800;BME280;27468;47.460;19.034;2022-10-14T03:26:09;100771.19;;;8.37;96.15
41800;BME280;27468;47.460;19.034;2022-10-14T03:28:35;100766.84;;;8.36;95.84
41800;BME280;27468;47.460;19.034;2022-10-14T03:31:00;100779.91;;;8.48;96.16
41800;BME280;27468;47.460;19.034;2022-10-14T03:33:26;100776.41;;;8.49;96.25
41800;BME280;27468;47.460;19.034;2022-10-14T03:35:51;100782.50;;;8.54;96.63
41800;BME280;27468;47.460;19.034;2022-10-14T03:38:16;100764.19;;;8.42;96.65
41800;BME280;27468;47.460;19.034;2022-10-14T03:40:42;100725.66;;;8.32;96.68
41800;BME280;27468;47.460;19.034;2022-10-14T03:43:08;100742.25;;;8.48;96.60
41800;BME280;27468;47.460;19.034;2022-10-14T03:45:33;100734.38;;;8.48;96.28
41800;BME280;27468;47.460;19.034;2022-10-14T03:47:59;100759.69;;;8.61;96.59
41800;BME280;27468;47.460;19.034;2022-10-14T03:50:24;100781.47;;;8.80;96.49
41800;BME280;27468;47.460;19.034;2022-10-14T03:52:50;100744.78;;;8.66;96.34
41800;BME280;27468;47.460;19.034;2022-10-14T03:55:15;100746.47;;;8.70;96.51
41800;BME280;27468;47.460;19.034;2022-10-14T03:57:41;100779.66;;;8.91;96.55
41800;BME280;27468;47.460;19.034;2022-10-14T04:00:07;100758.63;;;8.89;96.37
41800;BME280;27468;47.460;19.034;2022-10-14T04:02:33;100738.50;;;8.84;96.33
41800;BME280;27468;47.460;19.034;2022-10-14T04:04:58;100720.19;;;8.69;96.41
41800;BME280;27468;47.460;19.034;2022-10-14T04:07:24;100764.66;;;9.05;96.21
41800;BME280;27468;47.460;19.034;2022-10-14T04:09:49;100741.09;;;8.90;96.01
41800;BME280;27468;47.460;19.034;2022-10-14T04:12:15;100741.94;;;8.93;95.93
41800;BME280;27468;47.460;19.034;2022-10-14T04:14:40;100734.09;;;8.89;95.88
41800;BME280;27468;47.460;19.034;2022-10-14T04:17:05;100674.78;;;8.54;95.66
41800;BME280;27468;47.460;19.034;2022-10-14T04:19:31;100756.81;;;8.96;95.86
41800;BME280;27468;47.460;19.034;2022-10-14T04:21:56;100759.44;;;8.98;96.03
41800;BME280;27468;47.460;19.034;2022-10-14T04:24:22;100724.53;;;8.77;95.81
41800;BME280;27468;47.460;19.034;2022-10-14T04:26:51;100749.81;;;8.93;96.05
41800;BME280;27468;47.460;19.034;2022-10-14T04:29:17;100725.41;;;8.76;95.79
41800;BME280;27468;47.460;19.034;2022-10-14T04:31:43;100704.50;;;8.61;95.44
41800;BME280;27468;47.460;19.034;2022-10-14T04:34:09;100738.53;;;8.81;95.45
41800;BME280;27468;47.460;19.034;2022-10-14T04:36:35;100702.81;;;8.54;95.49
41800;BME280;27468;47.460;19.034;2022-10-14T04:39:00;100756.94;;;8.81;95.63
41800;BME280;27468;47.460;19.034;2022-10-14T04:41:26;100742.97;;;8.68;95.41
41800;BME280;27468;47.460;19.034;2022-10-14T04:43:51;100719.47;;;8.51;95.65
41800;BME280;27468;47.460;19.034;2022-10-14T04:46:17;100730.78;;;8.63;95.65
41800;BME280;27468;47.460;19.034;2022-10-14T04:48:42;100743.00;;;8.67;95.85
41800;BME280;27468;47.460;19.034;2022-10-14T04:51:08;100736.91;;;8.63;95.76
41800;BME280;27468;47.460;19.034;2022-10-14T04:53:33;100705.50;;;8.40;95.93
41800;BME280;27468;47.460;19.034;2022-10-14T04:55:59;100722.97;;;8.52;96.10
41800;BME280;27468;47.460;19.034;2022-10-14T04:58:24;100742.25;;;8.51;96.39
41800;BME280;27468;47.460;19.034;2022-10-14T05:00:53;100750.97;;;8.54;96.38
41800;BME280;27468;47.460;19.034;2022-10-14T05:03:19;100703.78;;;8.36;96.71
41800;BME280;27468;47.460;19.034;2022-10-14T05:05:44;100745.72;;;8.53;96.57
41800;BME280;27468;47.460;19.034;2022-10-14T05:08:10;100742.25;;;8.51;96.89
41800;BME280;27468;47.460;19.034;2022-10-14T05:10:36;100755.28;;;8.66;97.26
41800;BME280;27468;47.460;19.034;2022-10-14T05:13:02;100758.72;;;8.76;97.83
41800;BME280;27468;47.460;19.034;2022-10-14T05:15:27;100760.41;;;8.83;98.04
41800;BME280;27468;47.460;19.034;2022-10-14T05:17:53;100742.06;;;8.77;98.46
41800;BME280;27468;47.460;19.034;2022-10-14T05:20:18;100748.06;;;8.96;99.31
41800;BME280;27468;47.460;19.034;2022-10-14T05:22:44;100768.13;;;9.09;99.81
41800;BME280;27468;47.460;19.034;2022-10-14T05:25:10;100769.84;;;9.14;99.76
41800;BME280;27468;47.460;19.034;2022-10-14T05:27:35;100739.22;;;9.06;100.00
41800;BME280;27468;47.460;19.034;2022-10-14T05:30:01;100743.56;;;9.10;100.00
41800;BME280;27468;47.460;19.034;2022-10-14T05:32:27;100769.72;;;9.25;100.00
41800;BME280;27468;47.460;19.034;2022-10-14T05:34:52;100710.41;;;8.92;100.00
41800;BME280;27468;47.460;19.034;2022-10-14T05:37:18;100776.69;;;9.34;100.00
41800;BME280;27468;47.460;19.034;2022-10-14T05:39:43;100772.25;;;9.37;99.87
41800;BME280;27468;47.460;19.034;2022-10-14T05:42:08;100753.91;;;9.31;99.87
41800;BME280;27468;47.460;19.034;2022-10-14T05:44:34;100764.34;;;9.39;100.00
41800;BME280;27468;47.460;19.034;2022-10-14T05:46:59;100760.81;;;9.41;99.97
41800;BME280;27468;47.460;19.034;2022-10-14T05:49:25;100780.91;;;9.51;100.00
41800;BME280;27468;47.460;19.034;2022-10-14T05:51:50;100773.88;;;9.55;100.00
41800;BME280;27468;47.460;19.034;2022-10-14T05:54:16;100784.38;;;9.58;100.00
41800;BME280;27468;47.460;19.034;2022-10-14T05:56:41;100773.78;;;9.64;100.00
41800;BME280;27468;47.460;19.034;2022-10-14T05:59:08;100771.97;;;9.71;100.00
41800;BME280;27468;47.460;19.034;2022-10-14T06:01:34;100722.16;;;9.48;100.00
41800;BME280;27468;47.460;19.034;2022-10-14T06:04:00;100782.31;;;9.84;100.00
41800;BME280;27468;47.460;19.034;2022-10-14T06:06:26;100743.03;;;9.68;100.00
41800;BME280;27468;47.460;19.034;2022-10-14T06:08:53;100783.09;;;9.96;100.00
41800;BME280;27468;47.460;19.034;2022-10-14T06:11:19;100787.31;;;10.10;100.00
41800;BME280;27468;47.460;19.034;2022-10-14T06:13:44;100777.69;;;10.08;100.00
41800;BME280;27468;47.460;19.034;2022-10-14T06:16:10;100795.94;;;10.28;100.00
41800;BME280;27468;47.460;19.034;2022-10-14T06:18:36;100751.31;;;10.11;100.00
41800;BME280;27468;47.460;19.034;2022-10-14T06:21:02;100751.28;;;10.12;100.00
41800;BME280;27468;47.460;19.034;2022-10-14T06:23:28;100786.16;;;10.37;100.00
41800;BME280;27468;47.460;19.034;2022-10-14T06:25:54;100779.16;;;10.36;100.00
41800;BME280;27468;47.460;19.034;2022-10-14T06:28:19;100800.84;;;10.55;100.00
41800;BME280;27468;47.460;19.034;2022-10-14T06:30:54;100797.22;;;10.64;100.00
41800;BME280;27468;47.460;19.034;2022-10-14T06:33:20;100791.91;;;10.67;100.00
41800;BME280;27468;47.460;19.034;2022-10-14T06:35:46;100777.03;;;10.61;100.00
41800;BME280;27468;47.460;19.034;2022-10-14T06:38:11;100752.59;;;10.48;100.00
41800;BME280;27468;47.460;19.034;2022-10-14T06:40:37;100789.91;;;10.84;100.00
41800;BME280;27468;47.460;19.034;2022-10-14T06:43:03;100748.13;;;10.55;99.49
41800;BME280;27468;47.460;19.034;2022-10-14T06:45:28;100801.25;;;10.90;99.62
41800;BME280;27468;47.460;19.034;2022-10-14T06:47:54;100755.81;;;10.70;99.12
41800;BME280;27468;47.460;19.034;2022-10-14T06:50:19;100797.75;;;10.88;98.92
41800;BME280;27468;47.460;19.034;2022-10-14T06:52:45;100761.91;;;10.75;99.20
41800;BME280;27468;47.460;19.034;2022-10-14T06:55:11;100776.66;;;10.88;99.05
41800;BME280;27468;47.460;19.034;2022-10-14T06:57:37;100794.84;;;11.05;98.57
41800;BME280;27468;47.460;19.034;2022-10-14T07:00:04;100804.38;;;11.14;98.42
41800;BME280;27468;47.460;19.034;2022-10-14T07:02:30;100798.16;;;11.19;98.14
41800;BME280;27468;47.460;19.034;2022-10-14T07:04:55;100788.41;;;11.23;97.69
41800;BME280;27468;47.460;19.034;2022-10-14T07:07:21;100796.16;;;11.34;97.17
41800;BME280;27468;47.460;19.034;2022-10-14T07:09:46;100797.84;;;11.38;97.00
41800;BME280;27468;47.460;19.034;2022-10-14T07:12:12;100786.53;;;11.30;97.02
41800;BME280;27468;47.460;19.034;2022-10-14T07:14:37;100800.47;;;11.39;96.74
41800;BME280;27468;47.460;19.034;2022-10-14T07:17:02;100811.72;;;11.50;95.71
41800;BME280;27468;47.460;19.034;2022-10-14T07:19:28;100807.22;;;11.55;95.45
41800;BME280;27468;47.460;19.034;2022-10-14T07:21:53;100789.72;;;11.50;95.24
41800;BME280;27468;47.460;19.034;2022-10-14T07:24:19;100750.34;;;11.38;94.46
41800;BME280;27468;47.460;19.034;2022-10-14T07:26:44;100795.53;;;11.69;94.14
41800;BME280;27468;47.460;19.034;2022-10-14T07:29:09;100740.53;;;11.44;93.82
41800;BME280;27468;47.460;19.034;2022-10-14T07:31:35;100789.28;;;11.74;93.15
41800;BME280;27468;47.460;19.034;2022-10-14T07:34:00;100761.19;;;11.70;92.84
41800;BME280;27468;47.460;19.034;2022-10-14T07:36:26;100784.56;;;11.93;93.00
41800;BME280;27468;47.460;19.034;2022-10-14T07:38:52;100806.31;;;12.07;91.86
41800;BME280;27468;47.460;19.034;2022-10-14T07:41:21;100768.69;;;11.95;91.53
41800;BME280;27468;47.460;19.034;2022-10-14T07:43:51;100794.63;;;12.19;88.92
41800;BME280;27468;47.460;19.034;2022-10-14T07:46:20;100799.75;;;12.27;88.20
41800;BME280;27468;47.460;19.034;2022-10-14T07:49:02;100801.25;;;12.40;87.41
41800;BME280;27468;47.460;19.034;2022-10-14T07:51:28;100788.81;;;12.45;85.67
41800;BME280;27468;47.460;19.034;2022-10-14T07:53:55;100771.19;;;12.44;85.18
41800;BME280;27468;47.460;19.034;2022-10-14T07:56:21;100790.31;;;12.56;85.07
41800;BME280;27468;47.460;19.034;2022-10-14T07:58:47;100785.81;;;12.62;83.46
41800;BME280;27468;47.460;19.034;2022-10-14T08:01:13;100766.38;;;12.63;83.78
41800;BME280;27468;47.460;19.034;2022-10-14T08:03:41;100752.22;;;12.65;83.33
41800;BME280;27468;47.460;19.034;2022-10-14T08:06:07;100787.09;;;12.82;83.65
41800;BME280;27468;47.460;19.034;2022-10-14T08:08:32;100784.19;;;12.93;83.85
41800;BME280;27468;47.460;19.034;2022-10-14T08:11:05;100737.81;;;12.77;84.04
41800;BME280;27468;47.460;19.034;2022-10-14T08:13:31;100738.59;;;12.82;84.13
41800;BME280;27468;47.460;19.034;2022-10-14T08:15:56;100764.63;;;13.00;84.04
41800;BME280;27468;47.460;19.034;2022-10-14T08:18:22;100790.69;;;13.18;82.83
41800;BME280;27468;47.460;19.034;2022-10-14T08:20:47;100777.31;;;13.25;82.51
41800;BME280;27468;47.460;19.034;2022-10-14T08:23:13;100781.53;;;13.32;81.99
41800;BME280;27468;47.460;19.034;2022-10-14T08:25:38;100786.47;;;13.45;81.01
41800;BME280;27468;47.460;19.034;2022-10-14T08:28:04;100775.72;;;13.51;81.46
41800;BME280;27468;47.460;19.034;2022-10-14T08:30:29;100772.63;;;13.70;81.02
41800;BME280;27468;47.460;19.034;2022-10-14T08:32:55;100774.94;;;13.82;80.44
41800;BME280;27468;47.460;19.034;2022-10-14T08:35:20;100764.38;;;13.80;79.24
41800;BME280;27468;47.460;19.034;2022-10-14T08:37:59;100768.19;;;14.01;78.75
41800;BME280;27468;47.460;19.034;2022-10-14T08:40:29;100714.97;;;13.78;78.59
41800;BME280;27468;47.460;19.034;2022-10-14T08:43:02;100758.03;;;14.17;77.93
41800;BME280;27468;47.460;19.034;2022-10-14T08:45:36;100758.00;;;14.18;77.64
41800;BME280;27468;47.460;19.034;2022-10-14T08:48:09;100745.69;;;14.16;77.78
41800;BME280;27468;47.460;19.034;2022-10-14T08:53:27;100736.59;;;14.25;77.01
41800;BME280;27468;47.460;19.034;2022-10-14T08:55:59;100735.81;;;14.21;76.91
41800;BME280;27468;47.460;19.034;2022-10-14T08:58:59;100758.44;;;14.34;76.32
41800;BME280;27468;47.460;19.034;2022-10-14T09:01:31;100750.38;;;14.37;76.71
41800;BME280;27468;47.460;19.034;2022-10-14T09:04:03;100757.38;;;14.40;76.49
41800;BME280;27468;47.460;19.034;2022-10-14T09:06:31;100762.50;;;14.46;76.27
41800;BME280;27468;47.460;19.034;2022-10-14T09:09:19;100762.38;;;14.50;75.96
41800;BME280;27468;47.460;19.034;2022-10-14T09:11:50;100726.56;;;14.36;75.51
41800;BME280;27468;47.460;19.034;2022-10-14T09:14:20;100756.09;;;14.53;75.03
41800;BME280;27468;47.460;19.034;2022-10-14T09:16:48;100712.44;;;14.35;75.21
41800;BME280;27468;47.460;19.034;2022-10-14T09:21:54;100760.03;;;14.69;74.73
41800;BME280;27468;47.460;19.034;2022-10-14T09:24:21;100763.44;;;14.74;74.56
41800;BME280;27468;47.460;19.034;2022-10-14T09:29:41;100757.84;;;14.83;74.35
41800;BME280;27468;47.460;19.034;2022-10-14T09:32:12;100757.84;;;14.83;74.16
41800;BME280;27468;47.460;19.034;2022-10-14T09:34:40;100756.78;;;14.89;74.44
41800;BME280;27468;47.460;19.034;2022-10-14T09:37:33;100766.34;;;14.95;74.53
41800;BME280;27468;47.460;19.034;2022-10-14T09:42:59;100759.72;;;15.06;74.94
41800;BME280;27468;47.460;19.034;2022-10-14T09:48:49;100745.38;;;15.12;73.97
41800;BME280;27468;47.460;19.034;2022-10-14T09:53:50;100757.34;;;15.25;73.63
41800;BME280;27468;47.460;19.034;2022-10-14T09:56:33;100758.19;;;15.27;73.25
41800;BME280;27468;47.460;19.034;2022-10-14T09:59:18;100725.69;;;15.19;74.15
41800;BME280;27468;47.460;19.034;2022-10-14T10:01:53;100752.41;;;15.41;74.10
41800;BME280;27468;47.460;19.034;2022-10-14T10:04:24;100712.25;;;15.24;73.96
41800;BME280;27468;47.460;19.034;2022-10-14T10:06:52;100748.66;;;15.46;73.42
41800;BME280;27468;47.460;19.034;2022-10-14T10:09:19;100746.69;;;15.53;73.30
41800;BME280;27468;47.460;19.034;2022-10-14T10:11:45;100715.50;;;15.32;73.47
41800;BME280;27468;47.460;19.034;2022-10-14T10:16:45;100673.22;;;15.26;73.70
41800;BME280;27468;47.460;19.034;2022-10-14T10:19:31;100736.13;;;15.76;73.71
41800;BME280;27468;47.460;19.034;2022-10-14T10:27:39;100721.53;;;15.88;72.92
41800;BME280;27468;47.460;19.034;2022-10-14T10:32:53;100724.44;;;16.05;72.19
41800;BME280;27468;47.460;19.034;2022-10-14T10:38:24;100706.69;;;16.06;71.96
41800;BME280;27468;47.460;19.034;2022-10-14T10:46:12;100686.72;;;16.17;70.83
41800;BME280;27468;47.460;19.034;2022-10-14T10:51:53;100713.31;;;16.41;71.19
41800;BME280;27468;47.460;19.034;2022-10-14T10:54:56;100706.91;;;16.46;70.47
41800;BME280;27468;47.460;19.034;2022-10-14T10:57:42;100706.66;;;16.52;70.26
41800;BME280;27468;47.460;19.034;2022-10-14T11:00:18;100663.97;;;16.32;69.87
41800;BME280;27468;47.460;19.034;2022-10-14T11:02:53;100700.16;;;16.60;70.35
41800;BME280;27468;47.460;19.034;2022-10-14T11:05:40;100704.25;;;16.70;70.53
41800;BME280;27468;47.460;19.034;2022-10-14T11:11:16;100688.09;;;16.74;70.73
41800;BME280;27468;47.460;19.034;2022-10-14T11:14:22;100657.72;;;16.57;69.83
41800;BME280;27468;47.460;19.034;2022-10-14T11:33:01;100644.88;;;16.88;67.00
41800;BME280;27468;47.460;19.034;2022-10-14T11:35:39;100669.97;;;17.04;66.18
41800;BME280;27468;47.460;19.034;2022-10-14T11:41:09;100624.31;;;16.92;66.86
41800;BME280;27468;47.460;19.034;2022-10-14T11:43:56;100650.31;;;17.07;66.72
41800;BME280;27468;47.460;19.034;2022-10-14T11:46:32;100642.25;;;17.08;65.56
41800;BME280;27468;47.460;19.034;2022-10-14T11:49:21;100654.00;;;17.25;65.52
41800;BME280;27468;47.460;19.034;2022-10-14T11:52:25;100656.47;;;17.29;65.54
41800;BME280;27468;47.460;19.034;2022-10-14T11:55:15;100650.22;;;17.30;64.96
41800;BME280;27468;47.460;19.034;2022-10-14T12:00:20;100614.16;;;17.22;65.70
41800;BME280;27468;47.460;19.034;2022-10-14T12:05:46;100607.50;;;17.32;64.21
41800;BME280;27468;47.460;19.034;2022-10-14T12:08:41;100639.25;;;17.57;64.74
41800;BME280;27468;47.460;19.034;2022-10-14T12:11:21;100589.00;;;17.29;64.80
41800;BME280;27468;47.460;19.034;2022-10-14T12:13:53;100623.59;;;17.49;65.13
41800;BME280;27468;47.460;19.034;2022-10-14T12:16:23;100639.91;;;17.62;65.21
41800;BME280;27468;47.460;19.034;2022-10-14T12:18:54;100632.72;;;17.64;65.81
41800;BME280;27468;47.460;19.034;2022-10-14T12:24:30;100623.41;;;17.74;64.53
41800;BME280;27468;47.460;19.034;2022-10-14T12:26:59;100607.25;;;17.77;64.20
41800;BME280;27468;47.460;19.034;2022-10-14T12:29:39;100619.25;;;17.87;64.37
41800;BME280;27468;47.460;19.034;2022-10-14T12:34:53;100620.81;;;17.91;64.96
41800;BME280;27468;47.460;19.034;2022-10-14T12:43:01;100613.59;;;17.93;64.35
41800;BME280;27468;47.460;19.034;2022-10-14T12:45:30;100569.78;;;17.80;63.93
41800;BME280;27468;47.460;19.034;2022-10-14T12:48:06;100602.50;;;18.02;63.66
41800;BME280;27468;47.460;19.034;2022-10-14T12:50:39;100585.03;;;17.95;63.37
41800;BME280;27468;47.460;19.034;2022-10-14T12:53:15;100580.66;;;17.94;64.00
41800;BME280;27468;47.460;19.034;2022-10-14T12:55:56;100560.41;;;17.90;62.92
41800;BME280;27468;47.460;19.034;2022-10-14T12:58:29;100582.53;;;18.11;63.50
41800;BME280;27468;47.460;19.034;2022-10-14T13:00:59;100600.53;;;18.25;63.18
41800;BME280;27468;47.460;19.034;2022-10-14T13:03:30;100596.06;;;18.25;62.94
41800;BME280;27468;47.460;19.034;2022-10-14T13:11:40;100562.31;;;18.24;62.02
41800;BME280;27468;47.460;19.034;2022-10-14T13:15:28;100597.63;;;18.48;61.53
41800;BME280;27468;47.460;19.034;2022-10-14T13:17:29;100549.06;;;18.23;62.20
41800;BME280;27468;47.460;19.034;2022-10-14T13:23:35;100594.25;;;18.44;62.56
41800;BME280;27468;47.460;19.034;2022-10-14T13:35:01;100589.28;;;18.37;62.45
41800;BME280;27468;47.460;19.034;2022-10-14T13:37:44;100588.78;;;18.29;63.01
41800;BME280;27468;47.460;19.034;2022-10-14T13:40:23;100586.63;;;18.18;63.52
41800;BME280;27468;47.460;19.034;2022-10-14T13:43:05;100572.94;;;18.07;63.64
41800;BME280;27468;47.460;19.034;2022-10-14T13:45:50;100544.63;;;17.86;63.03
41800;BME280;27468;47.460;19.034;2022-10-14T13:48:32;100551.38;;;17.93;63.17
41800;BME280;27468;47.460;19.034;2022-10-14T13:53:57;100582.31;;;17.97;64.07
41800;BME280;27468;47.460;19.034;2022-10-14T13:56:28;100562.91;;;17.93;64.56
41800;BME280;27468;47.460;19.034;2022-10-14T13:58:55;100539.50;;;17.81;64.18
41800;BME280;27468;47.460;19.034;2022-10-14T14:01:31;100559.44;;;17.91;64.07
41800;BME280;27468;47.460;19.034;2022-10-14T14:03:59;100571.84;;;17.92;63.76
41800;BME280;27468;47.460;19.034;2022-10-14T14:06:26;100504.00;;;17.60;64.44
41800;BME280;27468;47.460;19.034;2022-10-14T14:08:55;100516.25;;;17.64;63.15
41800;BME280;27468;47.460;19.034;2022-10-14T14:11:27;100511.06;;;17.61;63.56
41800;BME280;27468;47.460;19.034;2022-10-14T14:13:56;100515.41;;;17.64;64.77
41800;BME280;27468;47.460;19.034;2022-10-14T14:16:28;100517.13;;;17.65;63.91
41800;BME280;27468;47.460;19.034;2022-10-14T14:18:53;100526.69;;;17.70;64.55
41800;BME280;27468;47.460;19.034;2022-10-14T14:21:25;100499.81;;;17.55;64.32
41800;BME280;27468;47.460;19.034;2022-10-14T14:23:59;100490.16;;;17.52;63.77
41800;BME280;27468;47.460;19.034;2022-10-14T14:26:36;100549.03;;;17.87;63.53
41800;BME280;27468;47.460;19.034;2022-10-14T14:29:04;100549.31;;;17.80;63.82
41800;BME280;27468;47.460;19.034;2022-10-14T14:31:30;100547.78;;;17.75;64.66
41800;BME280;27468;47.460;19.034;2022-10-14T14:33:57;100506.50;;;17.44;63.66
41800;BME280;27468;47.460;19.034;2022-10-14T14:36:24;100512.50;;;17.49;63.83
41800;BME280;27468;47.460;19.034;2022-10-14T14:38:57;100502.13;;;17.43;64.32
41800;BME280;27468;47.460;19.034;2022-10-14T14:41:25;100536.22;;;17.56;63.94
41800;BME280;27468;47.460;19.034;2022-10-14T14:43:53;100552.69;;;17.65;64.91
41800;BME280;27468;47.460;19.034;2022-10-14T14:46:26;100525.81;;;17.49;64.45
41800;BME280;27468;47.460;19.034;2022-10-14T14:48:53;100525.16;;;17.44;63.98
41800;BME280;27468;47.460;19.034;2022-10-14T14:51:20;100526.75;;;17.48;63.89
41800;BME280;27468;47.460;19.034;2022-10-14T14:53:53;100497.88;;;17.39;64.68
41800;BME280;27468;47.460;19.034;2022-10-14T14:56:28;100541.13;;;17.65;65.82
41800;BME280;27468;47.460;19.034;2022-10-14T14:59:01;100527.50;;;17.52;65.97
41800;BME280;27468;47.460;19.034;2022-10-14T15:01:30;100534.34;;;17.58;65.20